Time;durP1;ratioP1;P1;durP2;ratioP2;P2;SDS_P1;SDS_P2;PMS_P1;PMS_P2;Temp;Humidity;BMP_temperature;BMP_pressure;BME280_temperature;BME280_humidity;BME280_pressure;Samples;Min_cycle;Max_cycle;Signal;HPM_P1;HPM_P2
2022/09/03 00:02:14;;;;;;;17.27;8.80;;;;;;;16.37;50.09;100972.56;5053184;28;20029;-62
2022/09/03 00:04:57;;;;;;;15.95;8.10;;;;;;;16.27;50.48;100961.81;5052935;28;20021;-63
2022/09/03 00:07:34;;;;;;;15.95;9.00;;;;;;;16.30;50.50;100966.69;5051941;28;20509;-62
2022/09/03 00:10:04;;;;;;;17.00;8.93;;;;;;;16.23;50.85;100964.47;5052800;28;20025;-61
2022/09/03 00:12:38;;;;;;;16.02;8.38;;;;;;;16.19;51.00;100972.72;5052499;28;20064;-62
2022/09/03 00:15:12;;;;;;;18.73;8.43;;;;;;;16.17;50.98;100972.25;5052923;28;20071;-62
2022/09/03 00:17:46;;;;;;;17.02;8.30;;;;;;;16.15;51.17;100962.59;5052651;28;20057;-61
2022/09/03 00:20:20;;;;;;;16.10;7.85;;;;;;;16.11;51.20;100970.00;5052256;28;20036;-61
2022/09/03 00:22:52;;;;;;;15.30;8.30;;;;;;;16.10;51.14;100971.16;5052511;28;20037;-60
2022/09/03 00:25:41;;;;;;;16.23;8.73;;;;;;;16.08;50.57;100967.88;5052628;28;20025;-62
2022/09/03 00:28:13;;;;;;;17.33;8.77;;;;;;;16.04;51.34;100967.75;5052519;28;20037;-61
2022/09/03 00:30:41;;;;;;;16.33;8.60;;;;;;;16.01;51.07;100971.22;5052275;28;20112;-62
2022/09/03 00:33:12;;;;;;;16.75;8.57;;;;;;;15.99;51.49;100962.38;5052061;28;20420;-63
2022/09/03 00:35:40;;;;;;;16.05;8.07;;;;;;;15.99;51.31;100968.75;5052333;28;20029;-63
2022/09/03 00:38:05;;;;;;;17.60;8.82;;;;;;;16.00;51.75;100967.59;5052350;28;20029;-60
2022/09/03 00:40:36;;;;;;;17.77;8.32;;;;;;;15.99;51.57;100976.34;5052010;28;20029;-62
2022/09/03 00:43:14;;;;;;;15.10;8.35;;;;;;;15.98;52.13;100969.13;5052507;28;20380;-61
2022/09/03 00:46:11;;;;;;;16.13;8.32;;;;;;;15.93;51.13;100963.72;5051676;28;20025;-62
2022/09/03 00:49:24;;;;;;;17.20;8.50;;;;;;;15.96;51.01;100971.41;5047082;28;20080;-62
2022/09/03 00:52:01;;;;;;;17.27;8.60;;;;;;;15.87;52.25;100969.50;5001681;28;20473;-61
2022/09/03 00:54:51;;;;;;;14.02;8.43;;;;;;;15.84;51.81;100972.97;5052265;28;20061;-61
2022/09/03 00:57:24;;;;;;;16.40;8.40;;;;;;;15.79;52.10;100970.38;5051869;28;20033;-61
2022/09/03 01:00:07;;;;;;;16.00;8.38;;;;;;;15.78;52.05;100965.09;5052125;28;20079;-61
2022/09/03 01:03:00;;;;;;;17.15;8.55;;;;;;;15.78;52.11;100976.25;5052276;28;20132;-62
2022/09/03 01:06:21;;;;;;;18.43;8.30;;;;;;;15.76;51.96;100968.25;5052264;28;20033;-62
2022/09/03 01:09:10;;;;;;;16.70;8.20;;;;;;;15.71;52.85;100960.91;4990410;28;20034;-62
2022/09/03 01:11:58;;;;;;;19.08;9.00;;;;;;;15.71;52.31;100960.09;5049067;28;20037;-61
2022/09/03 01:14:54;;;;;;;14.98;8.27;;;;;;;15.71;52.41;100963.69;5052100;28;20029;-60
2022/09/03 01:17:38;;;;;;;15.27;8.43;;;;;;;15.70;52.43;100967.63;5052597;28;20460;-61
2022/09/03 01:20:18;;;;;;;16.85;8.35;;;;;;;15.70;53.13;100967.63;5055922;28;20048;-60
2022/09/03 01:23:15;;;;;;;16.65;8.15;;;;;;;15.65;52.84;100965.03;5056087;28;20071;-61
2022/09/03 01:25:53;;;;;;;16.02;8.18;;;;;;;15.58;52.93;100959.19;5044629;28;20045;-60
2022/09/03 01:28:55;;;;;;;16.80;8.68;;;;;;;15.56;52.31;100964.28;5055505;28;20029;-62
2022/09/03 01:31:56;;;;;;;17.77;8.77;;;;;;;15.56;52.23;100967.88;5055582;28;20032;-61
2022/09/03 01:34:38;;;;;;;17.42;8.93;;;;;;;15.46;53.63;100970.25;4993792;28;20034;-61
2022/09/03 01:37:10;;;;;;;18.42;8.77;;;;;;;15.44;53.64;100974.19;5049450;28;20033;-62
2022/09/03 01:39:54;;;;;;;19.02;8.80;;;;;;;15.38;53.75;100981.13;5055367;28;20036;-61
2022/09/03 01:42:47;;;;;;;17.27;8.57;;;;;;;15.35;53.92;100969.81;5055315;28;20429;-60
2022/09/03 01:45:48;;;;;;;16.88;8.32;;;;;;;15.29;53.98;100971.97;5055352;28;20549;-61
2022/09/03 01:48:13;;;;;;;15.68;8.70;;;;;;;15.21;54.25;100970.06;5055545;28;20040;-62
2022/09/03 01:51:12;;;;;;;17.33;8.60;;;;;;;15.18;54.66;100971.50;5055067;28;20025;-61
2022/09/03 01:54:00;;;;;;;18.20;8.25;;;;;;;15.19;54.34;100967.59;5037994;28;20396;-61
2022/09/03 01:56:47;;;;;;;16.45;8.57;;;;;;;15.13;54.52;100974.50;5055326;28;20442;-61
2022/09/03 01:59:21;;;;;;;17.73;8.93;;;;;;;15.08;54.83;100969.94;5055310;28;20103;-61
2022/09/03 02:01:58;;;;;;;15.45;8.15;;;;;;;15.05;55.09;100967.00;5055084;28;20025;-61
2022/09/03 02:04:25;;;;;;;18.17;8.73;;;;;;;14.96;54.97;100962.28;5054833;28;20053;-60
2022/09/03 02:06:52;;;;;;;17.35;9.00;;;;;;;14.96;55.33;100969.81;5054894;28;20037;-64
2022/09/03 02:09:19;;;;;;;17.00;8.75;;;;;;;14.92;55.32;100964.09;5055296;28;20078;-61
2022/09/03 02:11:50;;;;;;;16.35;9.30;;;;;;;14.88;55.50;100965.88;5055038;28;20028;-61
2022/09/03 02:14:16;;;;;;;17.13;8.55;;;;;;;14.91;55.41;100970.81;5055431;28;20029;-60
2022/09/03 02:16:43;;;;;;;18.45;8.93;;;;;;;14.88;55.57;100963.09;5054918;28;20400;-61
2022/09/03 02:19:13;;;;;;;16.52;9.10;;;;;;;14.88;55.57;100960.31;5054969;28;20464;-61
2022/09/03 02:21:46;;;;;;;16.95;8.45;;;;;;;14.85;55.55;100947.09;5054602;28;20477;-60
2022/09/03 02:24:12;;;;;;;19.10;8.55;;;;;;;14.88;55.82;100945.59;5054826;28;20045;-60
2022/09/03 02:26:37;;;;;;;17.85;8.40;;;;;;;14.86;55.85;100948.72;5054454;28;20106;-61
2022/09/03 02:29:03;;;;;;;17.70;8.18;;;;;;;14.84;55.67;100950.19;5053574;28;20033;-61
2022/09/03 02:31:28;;;;;;;16.73;8.10;;;;;;;14.82;55.58;100951.34;5054201;28;20032;-62
2022/09/03 02:33:55;;;;;;;19.05;9.30;;;;;;;14.79;56.04;100956.75;5054750;28;20175;-60
2022/09/03 02:36:28;;;;;;;17.05;9.25;;;;;;;14.73;55.79;100953.34;5054250;28;20032;-61
2022/09/03 02:38:54;;;;;;;17.60;8.63;;;;;;;14.74;55.88;100954.16;5054039;28;20043;-61
2022/09/03 02:41:19;;;;;;;15.57;7.97;;;;;;;14.72;56.31;100948.94;5054123;28;20029;-62
2022/09/03 02:43:57;;;;;;;17.90;8.35;;;;;;;14.70;55.92;100958.72;5053857;28;20074;-61
2022/09/03 02:46:32;;;;;;;16.80;8.50;;;;;;;14.68;55.95;100953.50;5054252;28;20064;-61
2022/09/03 02:48:57;;;;;;;16.35;8.20;;;;;;;14.69;56.51;100955.16;5053789;28;20120;-61
2022/09/03 02:51:22;;;;;;;18.52;8.95;;;;;;;14.65;56.27;100951.34;5053864;28;20040;-61
2022/09/03 02:53:48;;;;;;;17.35;8.80;;;;;;;14.61;56.38;100962.34;5054009;28;20087;-61
2022/09/03 02:56:13;;;;;;;16.17;8.30;;;;;;;14.56;56.54;100961.69;5054315;28;20025;-61
2022/09/03 02:58:38;;;;;;;16.65;8.45;;;;;;;14.54;56.54;100950.09;5054093;28;20491;-62
2022/09/03 03:01:04;;;;;;;16.45;9.20;;;;;;;14.49;56.72;100960.22;5053925;28;20052;-61
2022/09/03 03:03:30;;;;;;;16.63;8.57;;;;;;;14.49;56.70;100960.22;5053524;28;20029;-61
2022/09/03 03:05:59;;;;;;;16.60;8.70;;;;;;;14.46;56.66;100958.09;5053562;28;20021;-62
2022/09/03 03:08:27;;;;;;;17.13;8.93;;;;;;;14.46;57.07;100962.88;5053794;28;20056;-62
2022/09/03 03:10:57;;;;;;;16.70;8.35;;;;;;;14.34;56.90;100949.63;5053004;28;20120;-61
2022/09/03 03:13:22;;;;;;;15.10;8.68;;;;;;;14.39;56.82;100952.22;5052905;28;20071;-62
2022/09/03 03:15:48;;;;;;;19.08;9.23;;;;;;;14.37;57.15;100948.94;5052894;28;20488;-60
2022/09/03 03:18:14;;;;;;;16.90;9.02;;;;;;;14.35;57.03;100954.84;5052708;28;20125;-60
2022/09/03 03:20:40;;;;;;;16.80;9.30;;;;;;;14.34;57.23;100953.22;5053133;28;20013;-61
2022/09/03 03:23:06;;;;;;;18.00;8.73;;;;;;;14.32;57.48;100951.91;5053130;28;20096;-61
2022/09/03 03:25:36;;;;;;;17.30;8.90;;;;;;;14.31;57.19;100950.28;5053179;28;20064;-61
2022/09/03 03:28:03;;;;;;;18.65;8.98;;;;;;;14.29;57.52;100945.03;5052878;28;20033;-61
2022/09/03 03:30:28;;;;;;;16.23;8.60;;;;;;;14.26;57.41;100950.44;5053413;28;20467;-61
2022/09/03 03:32:54;;;;;;;16.67;8.88;;;;;;;14.24;57.91;100949.97;5052982;28;20025;-61
2022/09/03 03:35:20;;;;;;;17.00;8.98;;;;;;;14.25;57.52;100957.16;5052957;28;20029;-60
2022/09/03 03:37:45;;;;;;;17.55;8.70;;;;;;;14.21;57.55;100951.44;5053161;28;20399;-61
2022/09/03 03:40:11;;;;;;;17.23;9.10;;;;;;;14.22;57.75;100955.84;5052281;28;20108;-61
2022/09/03 03:42:37;;;;;;;14.45;8.70;;;;;;;14.24;57.57;100956.31;5052643;28;20049;-62
2022/09/03 03:45:03;;;;;;;16.00;8.50;;;;;;;14.20;57.71;100949.81;5052673;28;20087;-61
2022/09/03 03:47:32;;;;;;;16.92;8.60;;;;;;;14.20;58.27;100953.38;5053028;28;20037;-62
2022/09/03 03:49:58;;;;;;;15.27;8.50;;;;;;;14.15;58.09;100958.31;5052840;28;20060;-61
2022/09/03 03:52:24;;;;;;;16.52;8.70;;;;;;;14.15;57.91;100964.69;5052840;28;20029;-61
2022/09/03 03:54:50;;;;;;;16.63;8.65;;;;;;;14.10;58.20;100964.84;5052890;28;20538;-61
2022/09/03 03:57:16;;;;;;;16.58;8.30;;;;;;;14.06;58.40;100969.44;5052794;28;20061;-61
2022/09/03 03:59:41;;;;;;;16.17;8.27;;;;;;;14.03;58.43;100958.97;5052812;28;20116;-61
2022/09/03 04:02:06;;;;;;;17.23;8.15;;;;;;;14.02;58.62;100951.75;5052500;28;20021;-61
2022/09/03 04:04:32;;;;;;;16.50;8.25;;;;;;;14.02;58.63;100962.88;5052635;28;20103;-61
2022/09/03 04:06:57;;;;;;;14.98;8.40;;;;;;;14.02;58.50;100954.53;5052759;28;20025;-61
2022/09/03 04:09:22;;;;;;;17.48;8.75;;;;;;;13.99;58.71;100947.69;5052692;28;20036;-61
2022/09/03 04:11:49;;;;;;;18.10;8.88;;;;;;;13.93;58.62;100943.44;5052400;28;20120;-61
2022/09/03 04:14:14;;;;;;;17.13;8.93;;;;;;;13.95;59.10;100941.13;5052601;28;20071;-62
2022/09/03 04:16:39;;;;;;;17.33;8.57;;;;;;;13.95;58.86;100951.44;5052789;28;20441;-61
2022/09/03 04:19:05;;;;;;;15.57;8.57;;;;;;;13.94;59.23;100952.56;5052147;28;20053;-60
2022/09/03 04:21:30;;;;;;;17.92;8.75;;;;;;;13.94;59.27;100945.03;5052661;28;20025;-62
2022/09/03 04:23:56;;;;;;;17.90;8.93;;;;;;;13.91;59.57;100933.75;5052916;28;20063;-60
2022/09/03 04:26:25;;;;;;;17.35;9.13;;;;;;;13.92;59.21;100940.97;5052390;28;20076;-62
2022/09/03 04:28:50;;;;;;;17.90;8.75;;;;;;;13.90;59.73;100932.94;5051969;28;20028;-62
2022/09/03 04:31:18;;;;;;;16.98;9.07;;;;;;;13.86;59.99;100930.00;5052324;28;20025;-62
2022/09/03 04:33:43;;;;;;;16.90;9.00;;;;;;;13.87;59.58;100942.78;5052072;28;20177;-61
2022/09/03 04:36:11;;;;;;;16.48;8.88;;;;;;;13.86;59.61;100946.69;5052182;28;20130;-60
2022/09/03 04:38:39;;;;;;;16.50;8.40;;;;;;;13.82;59.59;100939.31;5055981;28;20020;-60
2022/09/03 04:41:07;;;;;;;16.73;8.73;;;;;;;13.86;59.76;100945.84;5071746;28;20037;-62
2022/09/03 04:43:32;;;;;;;17.38;8.85;;;;;;;13.75;59.41;100919.50;5071377;28;20024;-62
2022/09/03 04:45:59;;;;;;;14.52;8.27;;;;;;;13.83;59.74;100936.22;5071309;28;20017;-60
2022/09/03 04:48:26;;;;;;;16.20;8.30;;;;;;;13.81;59.84;100948.81;5068789;28;20044;-60
2022/09/03 04:50:51;;;;;;;16.52;8.80;;;;;;;13.79;59.81;100945.53;5061926;28;20054;-61
2022/09/03 04:53:17;;;;;;;16.33;9.27;;;;;;;13.77;60.21;100957.00;5060008;28;20100;-60
2022/09/03 04:55:42;;;;;;;15.15;8.50;;;;;;;13.73;60.06;100948.47;5060847;28;20020;-60
2022/09/03 04:58:07;;;;;;;15.75;8.50;;;;;;;13.72;60.68;100951.56;5059353;28;20028;-60
2022/09/03 05:00:35;;;;;;;17.92;8.57;;;;;;;13.65;60.52;100938.13;5060252;28;20021;-61
2022/09/03 05:03:00;;;;;;;18.02;8.88;;;;;;;13.73;60.73;100951.25;5062408;28;20043;-61
2022/09/03 05:05:26;;;;;;;18.42;8.90;;;;;;;13.71;60.36;100958.28;5062700;28;20441;-61
2022/09/03 05:07:52;;;;;;;17.63;8.50;;;;;;;13.69;60.61;100955.03;5059408;28;20442;-61
2022/09/03 05:10:20;;;;;;;15.88;8.50;;;;;;;13.68;60.77;100951.41;5059346;28;20475;-60
2022/09/03 05:12:47;;;;;;;16.92;9.20;;;;;;;13.65;60.94;100951.25;5062098;28;20460;-60
2022/09/03 05:15:13;;;;;;;18.55;8.80;;;;;;;13.67;60.73;100952.53;5062271;28;20024;-60
2022/09/03 05:17:38;;;;;;;18.92;9.07;;;;;;;13.62;61.02;100946.31;5063248;28;20050;-61
2022/09/03 05:20:06;;;;;;;17.55;9.23;;;;;;;13.67;60.77;100960.06;5060732;28;20103;-61
2022/09/03 05:22:33;;;;;;;16.67;8.95;;;;;;;13.69;61.15;100952.25;5062385;28;20021;-61
2022/09/03 05:24:58;;;;;;;16.27;9.15;;;;;;;13.72;61.02;100951.56;5061350;28;20040;-61
2022/09/03 05:27:23;;;;;;;16.95;8.73;;;;;;;13.71;60.97;100953.53;5061300;28;20049;-61
2022/09/03 05:29:48;;;;;;;17.77;8.98;;;;;;;13.75;60.98;100952.88;5060146;28;20033;-61
2022/09/03 05:32:16;;;;;;;17.13;8.85;;;;;;;13.76;60.87;100951.72;5059466;28;20016;-63
2022/09/03 05:34:41;;;;;;;16.17;8.75;;;;;;;13.79;60.92;100951.91;5060980;28;20025;-61
2022/09/03 05:37:07;;;;;;;17.92;9.13;;;;;;;13.80;61.22;100945.19;5059781;28;20029;-61
2022/09/03 05:39:32;;;;;;;18.95;8.38;;;;;;;13.86;60.90;100955.03;5059444;28;20024;-61
2022/09/03 05:41:57;;;;;;;19.05;8.68;;;;;;;13.89;60.86;100951.56;5041291;28;20044;-61
2022/09/03 05:44:23;;;;;;;17.90;8.23;;;;;;;13.92;61.16;100950.13;5062732;28;20013;-62
2022/09/03 05:46:50;;;;;;;17.10;8.73;;;;;;;13.99;60.70;100952.41;5060414;28;20032;-61
2022/09/03 05:49:16;;;;;;;19.15;9.00;;;;;;;14.06;60.75;100949.97;5068280;28;20081;-61
2022/09/03 05:51:41;;;;;;;18.85;9.07;;;;;;;14.10;60.43;100947.34;5071005;28;20012;-61
2022/09/03 05:54:07;;;;;;;17.35;8.68;;;;;;;14.15;60.49;100953.56;5071100;28;20048;-61
2022/09/03 05:56:34;;;;;;;19.25;8.80;;;;;;;14.19;60.61;100951.75;5070676;28;20039;-61
2022/09/03 05:59:04;;;;;;;16.48;9.00;;;;;;;14.18;60.41;100952.91;5070495;28;20080;-60
2022/09/03 06:01:35;;;;;;;17.33;8.82;;;;;;;14.23;60.75;100948.31;5070483;28;20036;-60
2022/09/03 06:04:09;;;;;;;17.20;9.00;;;;;;;14.26;60.35;100939.31;5069800;28;20199;-60
2022/09/03 06:06:37;;;;;;;18.95;9.43;;;;;;;14.35;60.70;100957.63;5072616;28;20034;-60
2022/09/03 06:09:06;;;;;;;20.48;8.80;;;;;;;14.40;60.21;100948.28;5048405;28;20383;-60
2022/09/03 06:11:33;;;;;;;19.02;8.88;;;;;;;14.45;60.36;100953.69;5065941;28;20021;-61
2022/09/03 06:14:00;;;;;;;19.92;9.38;;;;;;;14.53;60.27;100954.00;5069332;28;20024;-61
2022/09/03 06:16:26;;;;;;;19.40;9.25;;;;;;;14.60;60.24;100952.34;5074434;28;20503;-60
2022/09/03 06:18:52;;;;;;;18.08;9.00;;;;;;;14.69;60.54;100949.56;5075078;28;20087;-61
2022/09/03 06:21:17;;;;;;;15.27;8.80;;;;;;;14.76;59.89;100957.44;5074662;28;20017;-61
2022/09/03 06:23:48;;;;;;;17.17;8.88;;;;;;;14.84;60.00;100945.44;5074706;28;20413;-61
2022/09/03 06:26:13;;;;;;;23.27;10.68;;;;;;;15.00;59.65;100948.50;5073014;28;20455;-61
2022/09/03 06:28:44;;;;;;;17.42;8.40;;;;;;;15.19;58.94;100959.22;5074746;28;20111;-61
2022/09/03 06:31:12;;;;;;;17.67;8.82;;;;;;;15.34;58.35;100960.63;5074550;28;20058;-61
2022/09/03 06:33:38;;;;;;;19.67;8.85;;;;;;;15.55;58.15;100962.66;5073012;28;20448;-61
2022/09/03 06:36:06;;;;;;;19.00;8.55;;;;;;;15.73;57.47;100955.81;5074526;28;20024;-61
2022/09/03 06:38:34;;;;;;;18.52;9.00;;;;;;;15.98;56.26;100955.16;5056025;28;20024;-61
2022/09/03 06:41:02;;;;;;;19.35;8.60;;;;;;;16.18;56.22;100945.13;5074294;28;20460;-62
2022/09/03 06:43:30;;;;;;;18.30;8.48;;;;;;;16.33;55.67;100944.53;5074415;28;20021;-61
2022/09/03 06:46:01;;;;;;;19.55;8.40;;;;;;;16.57;55.04;100951.31;5056273;28;20025;-61
2022/09/03 06:48:29;;;;;;;18.45;8.40;;;;;;;16.78;54.58;100962.44;5073766;28;20029;-60
2022/09/03 06:51:05;;;;;;;15.82;8.20;;;;;;;16.90;53.29;100946.84;5074466;28;20056;-60
2022/09/03 06:53:33;;;;;;;15.80;8.27;;;;;;;17.00;53.35;100950.03;5074510;28;20028;-60
2022/09/03 06:56:01;;;;;;;18.25;8.15;;;;;;;17.23;52.60;100952.41;5074278;28;20058;-62
2022/09/03 06:58:31;;;;;;;17.83;8.18;;;;;;;17.39;52.31;100952.50;5073718;28;20032;-61
2022/09/03 07:01:09;;;;;;;16.60;8.00;;;;;;;17.56;52.27;100953.41;5074086;28;20056;-60
2022/09/03 07:03:35;;;;;;;16.70;7.93;;;;;;;17.70;51.51;100955.84;5071058;22;20058;-60
2022/09/03 07:06:03;;;;;;;18.52;8.35;;;;;;;17.75;50.99;100938.84;5052167;28;20456;-59
2022/09/03 07:08:31;;;;;;;21.33;8.30;;;;;;;17.96;50.30;100952.69;5053655;28;20072;-60
2022/09/03 07:11:07;;;;;;;15.32;7.63;;;;;;;18.07;50.19;100959.41;5053385;28;20116;-61
2022/09/03 07:13:34;;;;;;;15.13;7.68;;;;;;;18.19;49.12;100955.75;5053440;28;20078;-60
2022/09/03 07:16:02;;;;;;;16.98;7.38;;;;;;;18.19;49.10;100955.75;5052445;28;20453;-59
2022/09/03 07:18:27;;;;;;;14.52;7.50;;;;;;;18.27;49.48;100951.19;5053364;28;20056;-60
2022/09/03 07:21:00;;;;;;;16.70;7.30;;;;;;;18.17;49.42;100955.28;5053076;28;20151;-59
2022/09/03 07:23:28;;;;;;;14.30;7.22;;;;;;;18.10;49.29;100955.09;5053515;28;20049;-60
2022/09/03 07:25:58;;;;;;;15.18;8.15;;;;;;;18.09;49.79;100959.06;5052696;28;20029;-60
2022/09/03 07:28:24;;;;;;;15.63;7.65;;;;;;;18.16;49.79;100948.06;5052885;28;20533;-59
2022/09/03 07:30:54;;;;;;;15.63;7.47;;;;;;;18.19;49.50;100954.91;5034864;28;20085;-60
2022/09/03 07:33:19;;;;;;;15.30;7.50;;;;;;;18.23;49.71;100953.06;5052862;28;20021;-60
2022/09/03 07:35:46;;;;;;;16.38;8.13;;;;;;;18.26;49.54;100946.75;5052989;28;20036;-60
2022/09/03 07:38:15;;;;;;;14.02;7.75;;;;;;;18.31;48.85;100952.06;5052986;28;20139;-60
2022/09/03 07:40:40;;;;;;;14.15;7.40;;;;;;;18.38;48.53;100957.06;5053442;28;20036;-62
2022/09/03 07:43:06;;;;;;;17.77;7.63;;;;;;;18.42;48.63;100955.16;5053213;28;20100;-60
2022/09/03 07:45:32;;;;;;;14.38;7.43;;;;;;;18.49;48.70;100960.16;5052943;28;20029;-60
2022/09/03 07:47:58;;;;;;;16.90;7.78;;;;;;;18.57;49.23;100958.38;5053309;28;20084;-59
2022/09/03 07:50:23;;;;;;;17.38;7.60;;;;;;;18.63;48.02;100959.75;5053141;28;20060;-60
2022/09/03 07:52:54;;;;;;;14.15;7.68;;;;;;;18.70;48.73;100957.97;5052815;28;20494;-60
2022/09/03 07:55:19;;;;;;;14.20;7.25;;;;;;;18.78;48.26;100963.75;5052891;28;20068;-60
2022/09/03 07:57:44;;;;;;;14.55;7.82;;;;;;;18.84;48.18;100962.31;5052646;28;20102;-60
2022/09/03 08:00:11;;;;;;;15.18;7.60;;;;;;;18.88;47.78;100965.22;5051627;28;20087;-61
2022/09/03 08:02:37;;;;;;;15.30;7.80;;;;;;;18.92;47.75;100966.94;5052016;28;20067;-60
2022/09/03 08:05:02;;;;;;;16.60;8.10;;;;;;;18.96;47.47;100961.44;5052137;28;20085;-60
2022/09/03 08:07:29;;;;;;;17.23;7.70;;;;;;;18.99;47.51;100958.72;5051446;28;20029;-59
2022/09/03 08:09:54;;;;;;;16.33;8.13;;;;;;;19.04;47.68;100963.25;5061334;28;20134;-60
2022/09/03 08:12:20;;;;;;;17.88;7.85;;;;;;;19.15;47.65;100966.31;5061284;28;20016;-60
2022/09/03 08:14:45;;;;;;;16.75;7.72;;;;;;;19.23;47.67;100967.31;5070926;28;20369;-60
2022/09/03 08:17:11;;;;;;;15.23;7.93;;;;;;;19.18;47.28;100948.78;5069892;28;20020;-61
2022/09/03 08:19:36;;;;;;;18.17;7.90;;;;;;;19.28;47.42;100967.03;5071070;28;20024;-60
2022/09/03 08:22:02;;;;;;;16.35;7.97;;;;;;;19.35;47.34;100964.44;5070901;28;20031;-61
2022/09/03 08:24:27;;;;;;;18.85;8.02;;;;;;;19.35;46.93;100961.63;5070691;28;20372;-60
2022/09/03 08:26:52;;;;;;;16.90;7.90;;;;;;;19.45;46.99;100974.25;5068345;28;20033;-59
2022/09/03 08:29:19;;;;;;;17.05;8.02;;;;;;;19.50;47.22;100971.19;5070829;28;20111;-60
2022/09/03 08:31:44;;;;;;;14.50;7.85;;;;;;;19.58;46.78;100977.78;5070664;28;20128;-59
2022/09/03 08:34:10;;;;;;;15.80;7.70;;;;;;;19.68;47.10;100984.81;5070486;28;20043;-60
2022/09/03 08:36:38;;;;;;;15.82;7.80;;;;;;;19.79;46.80;100983.06;5070322;28;20025;-60
2022/09/03 08:39:08;;;;;;;15.75;7.95;;;;;;;19.86;46.59;100979.63;5070140;28;20028;-60
2022/09/03 08:41:36;;;;;;;17.23;8.27;;;;;;;19.99;46.75;100985.94;5070711;28;20076;-59
2022/09/03 08:44:38;;;;;;;14.48;8.00;;;;;;;20.08;46.19;100981.75;5070307;28;20396;-60
2022/09/03 08:47:26;;;;;;;17.63;8.10;;;;;;;20.21;46.75;100988.03;5069918;28;20051;-59
2022/09/03 08:50:12;;;;;;;18.67;8.15;;;;;;;20.33;46.00;100991.88;5070210;28;20421;-61
2022/09/03 08:52:47;;;;;;;15.20;8.23;;;;;;;20.39;45.63;100979.97;5069967;28;20032;-60
2022/09/03 08:55:20;;;;;;;16.23;8.40;;;;;;;20.41;45.48;100971.97;5070681;28;20051;-60
2022/09/03 08:57:48;;;;;;;17.33;8.07;;;;;;;20.54;45.44;100983.88;5070163;28;20052;-60
2022/09/03 09:00:15;;;;;;;17.63;8.60;;;;;;;20.69;44.44;100987.75;5070755;28;20037;-60
2022/09/03 09:02:46;;;;;;;15.80;8.45;;;;;;;20.81;44.31;100977.56;5051807;28;20386;-60
2022/09/03 09:05:20;;;;;;;15.52;8.43;;;;;;;20.92;44.07;100980.59;5070304;28;20032;-61
2022/09/03 09:08:01;;;;;;;15.32;8.30;;;;;;;20.98;44.12;100976.28;5070310;28;20039;-60
2022/09/03 09:10:35;;;;;;;15.35;7.78;;;;;;;21.03;44.35;100987.19;5070423;28;20449;-60
2022/09/03 09:13:19;;;;;;;16.05;8.02;;;;;;;21.14;44.40;100984.59;5070419;28;20032;-61
2022/09/03 09:16:03;;;;;;;15.68;7.80;;;;;;;21.28;44.21;100976.38;5069553;28;20407;-63
2022/09/03 09:19:10;;;;;;;15.65;7.55;;;;;;;21.39;43.82;100979.38;5069417;28;20150;-57
2022/09/03 09:21:44;;;;;;;16.17;7.85;;;;;;;21.42;43.06;100972.97;5046854;28;20052;-60
2022/09/03 09:24:20;;;;;;;16.92;7.80;;;;;;;21.41;43.11;100971.34;5069504;28;20044;-59
2022/09/03 09:26:46;;;;;;;15.65;7.55;;;;;;;21.44;42.76;100976.22;5068794;28;20480;-61
2022/09/03 09:29:13;;;;;;;17.65;7.60;;;;;;;21.61;42.60;100979.72;5068475;28;20039;-59
2022/09/03 09:31:43;;;;;;;12.75;6.90;;;;;;;21.76;42.57;100970.31;5069165;28;20028;-60
2022/09/03 09:34:09;;;;;;;13.15;7.55;;;;;;;21.86;42.75;100968.81;5069363;28;20075;-60
2022/09/03 09:36:45;;;;;;;17.15;7.80;;;;;;;21.86;42.60;100960.38;5069382;28;20400;-60
2022/09/03 09:39:14;;;;;;;14.38;7.20;;;;;;;22.03;41.77;100966.63;5071696;28;20047;-60
2022/09/03 09:41:40;;;;;;;15.10;6.90;;;;;;;22.18;41.61;100968.44;5073168;28;20043;-59
2022/09/03 09:44:06;;;;;;;17.17;7.30;;;;;;;22.29;41.39;100962.94;5073049;28;20024;-60
2022/09/03 09:46:35;;;;;;;13.20;7.07;;;;;;;22.41;41.70;100967.53;5073154;28;20032;-61
2022/09/03 09:49:01;;;;;;;12.75;7.13;;;;;;;22.53;41.10;100966.47;5073213;28;20122;-60
2022/09/03 09:51:29;;;;;;;12.38;7.10;;;;;;;22.58;40.65;100966.91;5073011;28;20151;-57
2022/09/03 09:54:18;;;;;;;19.63;7.40;;;;;;;22.64;40.40;100973.00;5072825;28;20109;-60
2022/09/03 09:56:45;;;;;;;15.05;7.15;;;;;;;22.69;39.78;100983.13;5073105;28;20075;-60
2022/09/03 09:59:12;;;;;;;14.73;7.55;;;;;;;22.80;39.77;100981.22;5072893;28;20029;-60
2022/09/03 10:01:40;;;;;;;13.35;7.60;;;;;;;22.77;39.61;100965.09;5073069;28;20487;-60
2022/09/03 10:04:23;;;;;;;15.82;7.50;;;;;;;22.93;40.20;100978.16;5072473;28;20496;-59
2022/09/03 10:07:01;;;;;;;15.32;7.78;;;;;;;22.94;40.01;100974.91;5072806;28;20032;-58
2022/09/03 10:09:29;;;;;;;13.50;7.45;;;;;;;23.06;39.74;100979.47;5072870;28;20028;-61
2022/09/03 10:12:23;;;;;;;13.50;7.60;;;;;;;23.13;39.23;100976.72;5072684;28;20086;-59
2022/09/03 10:14:56;;;;;;;13.10;7.38;;;;;;;23.17;39.05;100968.28;5072655;28;20086;-59
2022/09/03 10:17:29;;;;;;;16.88;7.50;;;;;;;23.12;38.81;100961.00;5070669;28;20028;-60
2022/09/03 10:20:27;;;;;;;13.88;7.68;;;;;;;23.19;39.36;100961.06;5072796;28;20116;-59
2022/09/03 10:23:00;;;;;;;12.13;7.20;;;;;;;23.27;38.89;100973.25;5072206;28;20028;-60
2022/09/03 10:25:32;;;;;;;13.77;7.50;;;;;;;23.29;39.16;100962.34;5072552;28;20065;-61
2022/09/03 10:28:00;;;;;;;14.80;7.30;;;;;;;23.35;38.86;100962.78;5072279;28;20032;-60
2022/09/03 10:30:27;;;;;;;13.75;7.43;;;;;;;23.43;38.55;100961.63;5072351;28;20177;-60
2022/09/03 10:33:14;;;;;;;13.10;7.47;;;;;;;23.60;39.07;100965.00;5072124;28;20064;-60
2022/09/03 10:35:52;;;;;;;15.82;7.38;;;;;;;23.68;38.85;100964.63;5072267;28;20032;-60
2022/09/03 10:38:31;;;;;;;11.50;7.10;;;;;;;23.72;38.36;100949.72;5054071;28;20035;-60
2022/09/03 10:41:09;;;;;;;14.85;6.80;;;;;;;23.79;38.18;100950.59;5072366;28;20127;-59
2022/09/03 10:44:09;;;;;;;11.60;6.90;;;;;;;23.92;37.85;100961.53;5072186;28;20385;-59
2022/09/03 10:46:59;;;;;;;11.43;6.82;;;;;;;23.88;37.28;100958.69;5072218;28;20145;-60
2022/09/03 10:49:50;;;;;;;14.05;7.07;;;;;;;23.92;37.66;100965.19;5071819;28;20106;-59
2022/09/03 10:52:21;;;;;;;12.23;6.80;;;;;;;24.04;37.36;100966.09;5035824;28;20075;-61
2022/09/03 10:55:05;;;;;;;13.70;6.90;;;;;;;24.18;36.95;100965.34;5071368;28;20112;-60
2022/09/03 10:57:37;;;;;;;;;;;;;;;24.23;37.32;100962.91;5072326;28;20075;-60
2022/09/03 11:00:11;;;;;;;12.98;6.88;;;;;;;24.20;37.23;100960.06;5071906;28;19916;-59
2022/09/03 11:02:57;;;;;;;12.02;6.85;;;;;;;24.21;36.98;100956.88;5071540;28;20093;-60
2022/09/03 11:05:30;;;;;;;15.20;6.97;;;;;;;24.37;37.41;100959.31;5072113;28;20055;-60
2022/09/03 11:08:17;;;;;;;12.93;7.03;;;;;;;24.52;36.82;100953.72;5071443;28;20123;-60
2022/09/03 11:11:01;;;;;;;14.70;7.05;;;;;;;24.56;37.26;100948.91;5071607;28;20032;-59
2022/09/03 11:13:35;;;;;;;13.85;7.32;;;;;;;24.56;36.14;100960.22;5071330;28;20553;-60
2022/09/03 11:16:10;;;;;;;12.48;7.10;;;;;;;24.64;36.43;100955.34;5069607;28;20090;-59
2022/09/03 11:18:43;;;;;;;14.13;7.07;;;;;;;24.67;36.30;100952.53;5071351;28;20506;-61
2022/09/03 11:21:12;;;;;;;14.60;7.45;;;;;;;24.65;36.65;100937.19;5071475;28;20387;-60
2022/09/03 11:23:42;;;;;;;13.10;7.40;;;;;;;24.77;36.23;100940.47;5071614;28;20029;-60
2022/09/03 11:26:11;;;;;;;14.15;7.50;;;;;;;24.75;36.29;100939.25;5071279;28;20071;-59
2022/09/03 11:29:18;;;;;;;12.65;7.40;;;;;;;24.85;36.35;100955.44;5071199;28;20032;-60
2022/09/03 11:31:56;;;;;;;15.00;7.30;;;;;;;24.92;35.73;100946.94;5060232;28;20040;-60
2022/09/03 11:34:25;;;;;;;12.88;7.30;;;;;;;24.98;35.78;100953.00;5071364;28;20035;-58
2022/09/03 11:36:51;;;;;;;13.43;7.20;;;;;;;25.12;36.25;100949.38;5071288;28;20037;-59
2022/09/03 11:39:31;;;;;;;14.02;7.28;;;;;;;25.18;35.39;100944.91;5071125;28;20111;-60